Weather at New River Valley Airport

Public forecast

Using degrees Fahrenheit for public forecast. Weather courtesy of forecast.io.

Current aviation weather report (METAR) for New River Valley Airport

2024/07/22 13:15 (retrieved 8 minutes ago)

KPSK 221315Z AUTO 00000KT 10SM OVC011 21/20 A3011 RMK AO2 T02110196

Closest aviation forecast (TAF) to New River Valley Airport

Closest forecast is Virginia Tech Montgomery Executive Airport, 13.6 nm (25.2 km) ENE.

2024/07/22 12:22 (retrieved 1 hour ago)

TAF KBCB 221120Z 2212/2312 00000KT P6SM OVC019 FM221400 00000KT P6SM VCTS OVC020CB TEMPO 2214/2216 4SM TSRA BR OVC007CB FM221600 17003KT P6SM VCTS OVC035CB TEMPO 2218/2222 2SM TSRA OVC020CB FM230100 00000KT P6SM SCT040 BKN080 FM230600 00000KT 4SM BR BKN045